sensor_id;sensor_type;location;lat;lon;timestamp;temperature;humidity
17152;DHT22;8691;50.828;4.700;2023-04-09T00:00:10;5.80;99.90
17152;DHT22;8691;50.828;4.700;2023-04-09T00:02:37;5.90;99.90
17152;DHT22;8691;50.828;4.700;2023-04-09T00:05:05;5.80;99.90
17152;DHT22;8691;50.828;4.700;2023-04-09T00:07:32;5.80;99.90
17152;DHT22;8691;50.828;4.700;2023-04-09T00:10:00;5.80;99.90
17152;DHT22;8691;50.828;4.700;2023-04-09T00:12:26;5.80;99.90
17152;DHT22;8691;50.828;4.700;2023-04-09T00:14:53;5.80;99.90
17152;DHT22;8691;50.828;4.700;2023-04-09T00:17:20;5.80;99.90
17152;DHT22;8691;50.828;4.700;2023-04-09T00:19:47;5.80;99.90
17152;DHT22;8691;50.828;4.700;2023-04-09T00:22:14;5.80;99.90
17152;DHT22;8691;50.828;4.700;2023-04-09T00:24:41;5.70;99.90
17152;DHT22;8691;50.828;4.700;2023-04-09T00:27:08;5.60;99.90
17152;DHT22;8691;50.828;4.700;2023-04-09T00:29:35;5.60;99.90
17152;DHT22;8691;50.828;4.700;2023-04-09T00:32:02;5.50;99.90
17152;DHT22;8691;50.828;4.700;2023-04-09T00:34:28;5.50;99.90
17152;DHT22;8691;50.828;4.700;2023-04-09T00:36:55;5.50;99.90
17152;DHT22;8691;50.828;4.700;2023-04-09T00:39:22;5.40;99.90
17152;DHT22;8691;50.828;4.700;2023-04-09T00:41:49;5.50;99.90
17152;DHT22;8691;50.828;4.700;2023-04-09T00:44:16;5.50;99.90
17152;DHT22;8691;50.828;4.700;2023-04-09T00:46:43;5.50;99.90
17152;DHT22;8691;50.828;4.700;2023-04-09T00:49:10;5.40;99.90
17152;DHT22;8691;50.828;4.700;2023-04-09T00:51:36;5.40;99.90
17152;DHT22;8691;50.828;4.700;2023-04-09T00:54:03;5.30;99.90
17152;DHT22;8691;50.828;4.700;2023-04-09T00:56:30;5.30;99.90
17152;DHT22;8691;50.828;4.700;2023-04-09T00:58:57;5.30;99.90
17152;DHT22;8691;50.828;4.700;2023-04-09T01:01:24;5.30;99.90
17152;DHT22;8691;50.828;4.700;2023-04-09T01:03:51;5.30;99.90
17152;DHT22;8691;50.828;4.700;2023-04-09T01:06:28;5.30;99.90
17152;DHT22;8691;50.828;4.700;2023-04-09T01:09:08;5.20;99.90
17152;DHT22;8691;50.828;4.700;2023-04-09T01:11:44;5.20;99.90
17152;DHT22;8691;50.828;4.700;2023-04-09T01:16:35;5.10;99.90
17152;DHT22;8691;50.828;4.700;2023-04-09T01:19:08;5.10;99.90
17152;DHT22;8691;50.828;4.700;2023-04-09T01:21:29;5.10;99.90
17152;DHT22;8691;50.828;4.700;2023-04-09T01:29:14;5.00;99.90
17152;DHT22;8691;50.828;4.700;2023-04-09T01:31:41;5.00;99.90
17152;DHT22;8691;50.828;4.700;2023-04-09T01:34:08;5.00;99.90
17152;DHT22;8691;50.828;4.700;2023-04-09T01:36:35;5.00;99.90
17152;DHT22;8691;50.828;4.700;2023-04-09T01:39:02;4.90;99.90
17152;DHT22;8691;50.828;4.700;2023-04-09T01:41:30;5.00;99.90
17152;DHT22;8691;50.828;4.700;2023-04-09T01:43:56;5.00;99.90
17152;DHT22;8691;50.828;4.700;2023-04-09T01:46:22;4.90;99.90
17152;DHT22;8691;50.828;4.700;2023-04-09T01:48:49;4.90;99.90
17152;DHT22;8691;50.828;4.700;2023-04-09T01:51:16;4.90;99.90
17152;DHT22;8691;50.828;4.700;2023-04-09T01:53:43;4.90;99.90
17152;DHT22;8691;50.828;4.700;2023-04-09T01:56:10;4.80;99.90
17152;DHT22;8691;50.828;4.700;2023-04-09T01:58:37;4.80;99.90
17152;DHT22;8691;50.828;4.700;2023-04-09T02:01:20;4.80;99.90
17152;DHT22;8691;50.828;4.700;2023-04-09T02:03:46;4.70;99.90
17152;DHT22;8691;50.828;4.700;2023-04-09T02:06:13;4.70;99.90
17152;DHT22;8691;50.828;4.700;2023-04-09T02:08:40;4.70;99.90
17152;DHT22;8691;50.828;4.700;2023-04-09T02:11:07;4.60;99.90
17152;DHT22;8691;50.828;4.700;2023-04-09T02:13:34;4.60;99.90
17152;DHT22;8691;50.828;4.700;2023-04-09T02:16:01;4.60;99.90
17152;DHT22;8691;50.828;4.700;2023-04-09T02:18:29;4.60;99.90
17152;DHT22;8691;50.828;4.700;2023-04-09T02:20:56;4.60;99.90
17152;DHT22;8691;50.828;4.700;2023-04-09T02:23:23;4.60;99.90
17152;DHT22;8691;50.828;4.700;2023-04-09T02:25:49;4.60;99.90
17152;DHT22;8691;50.828;4.700;2023-04-09T02:28:16;4.60;99.90
17152;DHT22;8691;50.828;4.700;2023-04-09T02:30:44;4.50;99.90
17152;DHT22;8691;50.828;4.700;2023-04-09T02:33:11;4.50;99.90
17152;DHT22;8691;50.828;4.700;2023-04-09T02:35:38;4.50;99.90
17152;DHT22;8691;50.828;4.700;2023-04-09T02:38:04;4.50;99.90
17152;DHT22;8691;50.828;4.700;2023-04-09T02:40:31;4.50;99.90
17152;DHT22;8691;50.828;4.700;2023-04-09T02:42:58;4.50;99.90
17152;DHT22;8691;50.828;4.700;2023-04-09T02:45:25;4.50;99.90
17152;DHT22;8691;50.828;4.700;2023-04-09T02:47:52;4.40;99.90
17152;DHT22;8691;50.828;4.700;2023-04-09T02:50:19;4.40;99.90
17152;DHT22;8691;50.828;4.700;2023-04-09T02:52:46;4.40;99.90
17152;DHT22;8691;50.828;4.700;2023-04-09T02:55:13;4.40;99.90
17152;DHT22;8691;50.828;4.700;2023-04-09T02:57:40;4.40;99.90
17152;DHT22;8691;50.828;4.700;2023-04-09T03:00:07;4.40;99.90
17152;DHT22;8691;50.828;4.700;2023-04-09T03:02:34;4.40;99.90
17152;DHT22;8691;50.828;4.700;2023-04-09T03:05:01;4.40;99.90
17152;DHT22;8691;50.828;4.700;2023-04-09T03:07:28;4.30;99.90
17152;DHT22;8691;50.828;4.700;2023-04-09T03:09:55;4.40;99.90
17152;DHT22;8691;50.828;4.700;2023-04-09T03:12:21;4.40;99.90
17152;DHT22;8691;50.828;4.700;2023-04-09T03:14:49;4.40;99.90
17152;DHT22;8691;50.828;4.700;2023-04-09T03:17:17;4.30;99.90
17152;DHT22;8691;50.828;4.700;2023-04-09T03:19:44;4.40;99.90
17152;DHT22;8691;50.828;4.700;2023-04-09T03:22:11;4.30;99.90
17152;DHT22;8691;50.828;4.700;2023-04-09T03:24:37;4.30;99.90
17152;DHT22;8691;50.828;4.700;2023-04-09T03:27:04;4.30;99.90
17152;DHT22;8691;50.828;4.700;2023-04-09T03:29:31;4.30;99.90
17152;DHT22;8691;50.828;4.700;2023-04-09T03:31:58;4.30;99.90
17152;DHT22;8691;50.828;4.700;2023-04-09T03:34:25;4.30;99.90
17152;DHT22;8691;50.828;4.700;2023-04-09T03:36:52;4.30;99.90
17152;DHT22;8691;50.828;4.700;2023-04-09T03:39:20;4.20;99.90
17152;DHT22;8691;50.828;4.700;2023-04-09T03:41:46;4.20;99.90
17152;DHT22;8691;50.828;4.700;2023-04-09T03:44:13;4.20;99.90
17152;DHT22;8691;50.828;4.700;2023-04-09T03:46:40;4.20;99.90
17152;DHT22;8691;50.828;4.700;2023-04-09T03:49:07;4.20;99.90
17152;DHT22;8691;50.828;4.700;2023-04-09T03:51:34;4.20;99.90
17152;DHT22;8691;50.828;4.700;2023-04-09T03:54:01;4.20;99.90
17152;DHT22;8691;50.828;4.700;2023-04-09T03:56:28;4.10;99.90
17152;DHT22;8691;50.828;4.700;2023-04-09T03:58:55;4.10;99.90
17152;DHT22;8691;50.828;4.700;2023-04-09T04:01:22;4.10;99.90
17152;DHT22;8691;50.828;4.700;2023-04-09T04:03:49;4.10;99.90
17152;DHT22;8691;50.828;4.700;2023-04-09T04:06:16;4.10;99.90
17152;DHT22;8691;50.828;4.700;2023-04-09T04:08:43;4.00;99.90
17152;DHT22;8691;50.828;4.700;2023-04-09T04:11:11;4.00;99.90
17152;DHT22;8691;50.828;4.700;2023-04-09T04:13:38;4.00;99.90
17152;DHT22;8691;50.828;4.700;2023-04-09T04:16:08;4.00;99.90
17152;DHT22;8691;50.828;4.700;2023-04-09T04:18:35;4.00;99.90
17152;DHT22;8691;50.828;4.700;2023-04-09T04:21:02;4.00;99.90
17152;DHT22;8691;50.828;4.700;2023-04-09T04:23:28;4.00;99.90
17152;DHT22;8691;50.828;4.700;2023-04-09T04:25:55;4.00;99.90
17152;DHT22;8691;50.828;4.700;2023-04-09T04:28:22;4.00;99.90
17152;DHT22;8691;50.828;4.700;2023-04-09T04:30:50;4.00;99.90
17152;DHT22;8691;50.828;4.700;2023-04-09T04:33:17;4.00;99.90
17152;DHT22;8691;50.828;4.700;2023-04-09T04:35:44;4.00;99.90
17152;DHT22;8691;50.828;4.700;2023-04-09T04:38:11;3.90;99.90
17152;DHT22;8691;50.828;4.700;2023-04-09T04:40:37;3.90;99.90
17152;DHT22;8691;50.828;4.700;2023-04-09T04:43:04;3.90;99.90
17152;DHT22;8691;50.828;4.700;2023-04-09T04:45:31;3.80;99.90
17152;DHT22;8691;50.828;4.700;2023-04-09T04:47:58;3.80;99.90
17152;DHT22;8691;50.828;4.700;2023-04-09T04:50:25;3.80;99.90
17152;DHT22;8691;50.828;4.700;2023-04-09T04:52:52;3.80;99.90
17152;DHT22;8691;50.828;4.700;2023-04-09T04:55:19;3.80;99.90
17152;DHT22;8691;50.828;4.700;2023-04-09T04:57:45;3.80;99.90
17152;DHT22;8691;50.828;4.700;2023-04-09T05:00:12;3.90;99.90
17152;DHT22;8691;50.828;4.700;2023-04-09T05:02:40;3.90;99.90
17152;DHT22;8691;50.828;4.700;2023-04-09T05:05:07;3.90;99.90
17152;DHT22;8691;50.828;4.700;2023-04-09T05:07:35;3.90;99.90
17152;DHT22;8691;50.828;4.700;2023-04-09T05:10:02;3.90;99.90
17152;DHT22;8691;50.828;4.700;2023-04-09T05:12:31;4.00;99.90
17152;DHT22;8691;50.828;4.700;2023-04-09T05:14:58;4.00;99.90
17152;DHT22;8691;50.828;4.700;2023-04-09T05:17:25;4.10;99.90
17152;DHT22;8691;50.828;4.700;2023-04-09T05:19:52;4.20;99.90
17152;DHT22;8691;50.828;4.700;2023-04-09T05:22:19;4.30;99.90
17152;DHT22;8691;50.828;4.700;2023-04-09T05:24:46;4.40;99.90
17152;DHT22;8691;50.828;4.700;2023-04-09T05:27:13;4.50;99.90
17152;DHT22;8691;50.828;4.700;2023-04-09T05:29:40;4.60;99.90
17152;DHT22;8691;50.828;4.700;2023-04-09T05:32:06;4.70;99.90
17152;DHT22;8691;50.828;4.700;2023-04-09T05:34:33;4.80;99.90
17152;DHT22;8691;50.828;4.700;2023-04-09T05:37:00;4.90;99.90
17152;DHT22;8691;50.828;4.700;2023-04-09T05:39:27;5.00;99.90
17152;DHT22;8691;50.828;4.700;2023-04-09T05:41:54;5.20;99.90
17152;DHT22;8691;50.828;4.700;2023-04-09T05:44:21;5.40;99.90
17152;DHT22;8691;50.828;4.700;2023-04-09T05:46:48;5.60;99.90
17152;DHT22;8691;50.828;4.700;2023-04-09T05:49:15;5.80;99.90
17152;DHT22;8691;50.828;4.700;2023-04-09T05:51:42;6.30;99.90
17152;DHT22;8691;50.828;4.700;2023-04-09T05:54:09;7.00;99.90
17152;DHT22;8691;50.828;4.700;2023-04-09T05:56:35;7.70;99.90
17152;DHT22;8691;50.828;4.700;2023-04-09T05:59:02;8.40;99.90
17152;DHT22;8691;50.828;4.700;2023-04-09T06:01:30;9.10;99.90
17152;DHT22;8691;50.828;4.700;2023-04-09T06:03:56;9.80;99.90
17152;DHT22;8691;50.828;4.700;2023-04-09T06:06:23;10.40;99.90
17152;DHT22;8691;50.828;4.700;2023-04-09T06:08:51;11.20;99.90
17152;DHT22;8691;50.828;4.700;2023-04-09T06:11:18;11.90;99.90
17152;DHT22;8691;50.828;4.700;2023-04-09T06:13:45;11.90;99.90
17152;DHT22;8691;50.828;4.700;2023-04-09T06:16:12;12.40;99.90
17152;DHT22;8691;50.828;4.700;2023-04-09T06:18:39;12.90;99.90
17152;DHT22;8691;50.828;4.700;2023-04-09T06:21:06;13.50;99.90
17152;DHT22;8691;50.828;4.700;2023-04-09T06:23:33;13.70;99.90
17152;DHT22;8691;50.828;4.700;2023-04-09T06:25:59;14.40;99.90
17152;DHT22;8691;50.828;4.700;2023-04-09T06:28:29;14.80;99.90
17152;DHT22;8691;50.828;4.700;2023-04-09T06:30:53;15.10;99.90
17152;DHT22;8691;50.828;4.700;2023-04-09T06:33:20;15.40;99.90
17152;DHT22;8691;50.828;4.700;2023-04-09T06:35:47;15.60;99.90
17152;DHT22;8691;50.828;4.700;2023-04-09T06:38:14;16.00;99.90
17152;DHT22;8691;50.828;4.700;2023-04-09T06:40:40;16.30;99.90
17152;DHT22;8691;50.828;4.700;2023-04-09T06:43:07;16.60;99.90
17152;DHT22;8691;50.828;4.700;2023-04-09T06:45:35;17.40;98.90
17152;DHT22;8691;50.828;4.700;2023-04-09T06:48:02;17.40;98.90
17152;DHT22;8691;50.828;4.700;2023-04-09T06:50:29;17.60;98.20
17152;DHT22;8691;50.828;4.700;2023-04-09T06:52:57;18.00;97.40
17152;DHT22;8691;50.828;4.700;2023-04-09T06:55:24;18.00;97.40
17152;DHT22;8691;50.828;4.700;2023-04-09T06:57:51;19.00;95.30
17152;DHT22;8691;50.828;4.700;2023-04-09T07:00:18;19.00;95.30
17152;DHT22;8691;50.828;4.700;2023-04-09T07:02:45;19.10;94.80
17152;DHT22;8691;50.828;4.700;2023-04-09T07:05:12;19.10;93.80
17152;DHT22;8691;50.828;4.700;2023-04-09T07:07:39;19.40;94.00
17152;DHT22;8691;50.828;4.700;2023-04-09T07:10:06;19.80;93.60
17152;DHT22;8691;50.828;4.700;2023-04-09T07:12:33;20.10;92.10
17152;DHT22;8691;50.828;4.700;2023-04-09T07:15:00;20.30;91.20
17152;DHT22;8691;50.828;4.700;2023-04-09T07:17:26;20.50;92.00
17152;DHT22;8691;50.828;4.700;2023-04-09T07:19:53;20.80;91.40
17152;DHT22;8691;50.828;4.700;2023-04-09T07:22:20;21.00;90.80
17152;DHT22;8691;50.828;4.700;2023-04-09T07:24:47;20.70;90.70
17152;DHT22;8691;50.828;4.700;2023-04-09T07:27:14;20.70;90.90
17152;DHT22;8691;50.828;4.700;2023-04-09T07:29:45;21.50;89.40
17152;DHT22;8691;50.828;4.700;2023-04-09T07:32:12;21.50;89.30
17152;DHT22;8691;50.828;4.700;2023-04-09T07:34:39;21.70;86.00
17152;DHT22;8691;50.828;4.700;2023-04-09T07:37:06;21.70;87.50
17152;DHT22;8691;50.828;4.700;2023-04-09T07:39:33;22.50;85.30
17152;DHT22;8691;50.828;4.700;2023-04-09T07:42:01;22.60;84.90
17152;DHT22;8691;50.828;4.700;2023-04-09T07:44:28;22.50;84.60
17152;DHT22;8691;50.828;4.700;2023-04-09T07:46:55;22.90;84.40
17152;DHT22;8691;50.828;4.700;2023-04-09T07:49:22;23.40;80.40
17152;DHT22;8691;50.828;4.700;2023-04-09T07:51:48;23.60;79.30
17152;DHT22;8691;50.828;4.700;2023-04-09T07:54:15;23.00;81.80
17152;DHT22;8691;50.828;4.700;2023-04-09T07:56:42;23.60;80.00
17152;DHT22;8691;50.828;4.700;2023-04-09T07:59:09;23.80;79.90
17152;DHT22;8691;50.828;4.700;2023-04-09T08:01:36;23.70;78.70
17152;DHT22;8691;50.828;4.700;2023-04-09T08:04:04;24.00;77.40
17152;DHT22;8691;50.828;4.700;2023-04-09T08:06:31;24.00;76.90
17152;DHT22;8691;50.828;4.700;2023-04-09T08:08:58;24.40;76.70
17152;DHT22;8691;50.828;4.700;2023-04-09T08:11:24;24.40;77.60
17152;DHT22;8691;50.828;4.700;2023-04-09T08:13:51;24.00;78.50
17152;DHT22;8691;50.828;4.700;2023-04-09T08:16:18;24.40;76.10
17152;DHT22;8691;50.828;4.700;2023-04-09T08:18:45;25.00;74.10
17152;DHT22;8691;50.828;4.700;2023-04-09T08:21:13;24.30;74.40
17152;DHT22;8691;50.828;4.700;2023-04-09T08:23:40;24.10;74.20
17152;DHT22;8691;50.828;4.700;2023-04-09T08:26:07;24.10;74.20
17152;DHT22;8691;50.828;4.700;2023-04-09T08:28:34;24.20;76.20
17152;DHT22;8691;50.828;4.700;2023-04-09T08:31:01;24.70;74.30
17152;DHT22;8691;50.828;4.700;2023-04-09T08:33:28;25.30;73.30
17152;DHT22;8691;50.828;4.700;2023-04-09T08:35:55;25.30;71.40
17152;DHT22;8691;50.828;4.700;2023-04-09T08:38:22;24.50;75.10
17152;DHT22;8691;50.828;4.700;2023-04-09T08:40:49;23.80;75.00
17152;DHT22;8691;50.828;4.700;2023-04-09T08:43:17;23.80;76.20
17152;DHT22;8691;50.828;4.700;2023-04-09T08:45:44;23.70;75.70
17152;DHT22;8691;50.828;4.700;2023-04-09T08:48:12;23.80;75.40
17152;DHT22;8691;50.828;4.700;2023-04-09T08:50:38;23.40;77.70
17152;DHT22;8691;50.828;4.700;2023-04-09T08:53:05;24.00;76.40
17152;DHT22;8691;50.828;4.700;2023-04-09T08:55:32;23.80;74.50
17152;DHT22;8691;50.828;4.700;2023-04-09T08:58:03;22.90;78.30
17152;DHT22;8691;50.828;4.700;2023-04-09T09:00:29;22.90;78.30
17152;DHT22;8691;50.828;4.700;2023-04-09T09:03:03;23.10;79.20
17152;DHT22;8691;50.828;4.700;2023-04-09T09:08:02;23.30;76.90
17152;DHT22;8691;50.828;4.700;2023-04-09T09:10:41;24.10;75.30
17152;DHT22;8691;50.828;4.700;2023-04-09T09:13:17;23.70;75.20
17152;DHT22;8691;50.828;4.700;2023-04-09T09:15:43;23.90;76.80
17152;DHT22;8691;50.828;4.700;2023-04-09T09:18:12;24.00;75.30
17152;DHT22;8691;50.828;4.700;2023-04-09T09:20:37;22.60;77.80
17152;DHT22;8691;50.828;4.700;2023-04-09T09:23:04;22.40;79.50
17152;DHT22;8691;50.828;4.700;2023-04-09T09:25:36;22.80;80.50
17152;DHT22;8691;50.828;4.700;2023-04-09T09:28:09;23.40;80.20
17152;DHT22;8691;50.828;4.700;2023-04-09T09:30:26;23.40;78.20
17152;DHT22;8691;50.828;4.700;2023-04-09T09:32:52;24.00;77.20
17152;DHT22;8691;50.828;4.700;2023-04-09T09:35:19;24.40;76.40
17152;DHT22;8691;50.828;4.700;2023-04-09T09:37:54;24.30;76.00
17152;DHT22;8691;50.828;4.700;2023-04-09T09:40:25;23.90;74.60
17152;DHT22;8691;50.828;4.700;2023-04-09T09:42:53;23.90;74.60
17152;DHT22;8691;50.828;4.700;2023-04-09T09:45:17;23.80;74.40
17152;DHT22;8691;50.828;4.700;2023-04-09T09:47:44;23.70;76.90
17152;DHT22;8691;50.828;4.700;2023-04-09T09:50:12;23.20;77.60
17152;DHT22;8691;50.828;4.700;2023-04-09T09:52:39;23.10;77.40
17152;DHT22;8691;50.828;4.700;2023-04-09T09:55:06;22.70;78.20
17152;DHT22;8691;50.828;4.700;2023-04-09T09:57:33;21.40;80.40
17152;DHT22;8691;50.828;4.700;2023-04-09T10:00:02;20.60;85.10
17152;DHT22;8691;50.828;4.700;2023-04-09T10:02:30;20.00;84.40
17152;DHT22;8691;50.828;4.700;2023-04-09T10:04:59;20.60;88.00
17152;DHT22;8691;50.828;4.700;2023-04-09T10:07:24;20.60;87.20
17152;DHT22;8691;50.828;4.700;2023-04-09T10:09:51;21.70;82.00
17152;DHT22;8691;50.828;4.700;2023-04-09T10:12:20;23.00;76.80
17152;DHT22;8691;50.828;4.700;2023-04-09T10:14:45;22.90;76.70
17152;DHT22;8691;50.828;4.700;2023-04-09T10:17:12;23.50;75.90
17152;DHT22;8691;50.828;4.700;2023-04-09T10:19:40;23.50;77.00
17152;DHT22;8691;50.828;4.700;2023-04-09T10:22:09;23.80;77.50
17152;DHT22;8691;50.828;4.700;2023-04-09T10:24:36;24.30;73.60
17152;DHT22;8691;50.828;4.700;2023-04-09T10:27:09;24.00;74.20
17152;DHT22;8691;50.828;4.700;2023-04-09T10:29:40;24.10;74.80
17152;DHT22;8691;50.828;4.700;2023-04-09T10:32:03;24.20;73.80
17152;DHT22;8691;50.828;4.700;2023-04-09T10:34:29;24.40;74.30
17152;DHT22;8691;50.828;4.700;2023-04-09T10:36:56;23.60;75.40
17152;DHT22;8691;50.828;4.700;2023-04-09T10:39:27;22.20;80.00
17152;DHT22;8691;50.828;4.700;2023-04-09T10:41:53;22.20;79.80
17152;DHT22;8691;50.828;4.700;2023-04-09T10:44:24;21.60;78.40
17152;DHT22;8691;50.828;4.700;2023-04-09T10:46:51;20.90;84.30
17152;DHT22;8691;50.828;4.700;2023-04-09T10:49:17;21.10;81.90
17152;DHT22;8691;50.828;4.700;2023-04-09T10:51:53;20.80;84.30
17152;DHT22;8691;50.828;4.700;2023-04-09T10:59:39;20.90;84.40
17152;DHT22;8691;50.828;4.700;2023-04-09T11:02:06;21.20;84.20
17152;DHT22;8691;50.828;4.700;2023-04-09T11:04:41;21.40;83.10
17152;DHT22;8691;50.828;4.700;2023-04-09T11:06:57;21.40;83.10
17152;DHT22;8691;50.828;4.700;2023-04-09T11:09:24;21.10;81.20
17152;DHT22;8691;50.828;4.700;2023-04-09T11:11:54;20.50;82.30
17152;DHT22;8691;50.828;4.700;2023-04-09T11:14:21;20.00;85.90
17152;DHT22;8691;50.828;4.700;2023-04-09T11:16:48;19.80;86.80
17152;DHT22;8691;50.828;4.700;2023-04-09T11:19:14;19.40;87.10
17152;DHT22;8691;50.828;4.700;2023-04-09T11:21:41;19.20;87.80
17152;DHT22;8691;50.828;4.700;2023-04-09T11:24:11;19.10;89.10
17152;DHT22;8691;50.828;4.700;2023-04-09T11:26:38;18.80;90.20
17152;DHT22;8691;50.828;4.700;2023-04-09T11:29:07;18.70;90.30
17152;DHT22;8691;50.828;4.700;2023-04-09T11:31:34;18.40;90.60
17152;DHT22;8691;50.828;4.700;2023-04-09T11:34:02;17.90;92.30
17152;DHT22;8691;50.828;4.700;2023-04-09T11:36:32;17.70;92.90
17152;DHT22;8691;50.828;4.700;2023-04-09T11:38:57;17.70;93.00
17152;DHT22;8691;50.828;4.700;2023-04-09T11:41:34;17.80;94.00
17152;DHT22;8691;50.828;4.700;2023-04-09T11:44:09;18.10;93.50
17152;DHT22;8691;50.828;4.700;2023-04-09T11:46:36;18.40;92.20
17152;DHT22;8691;50.828;4.700;2023-04-09T11:49:02;18.20;92.50
17152;DHT22;8691;50.828;4.700;2023-04-09T11:51:29;18.20;92.70
17152;DHT22;8691;50.828;4.700;2023-04-09T11:54:00;18.00;92.80
17152;DHT22;8691;50.828;4.700;2023-04-09T11:56:29;18.00;92.80
17152;DHT22;8691;50.828;4.700;2023-04-09T11:58:57;18.40;92.20
17152;DHT22;8691;50.828;4.700;2023-04-09T12:01:23;18.70;91.80
17152;DHT22;8691;50.828;4.700;2023-04-09T12:03:51;19.10;91.20
17152;DHT22;8691;50.828;4.700;2023-04-09T12:06:21;19.40;87.40
17152;DHT22;8691;50.828;4.700;2023-04-09T12:08:45;19.40;87.40
17152;DHT22;8691;50.828;4.700;2023-04-09T12:11:13;19.70;87.40
17152;DHT22;8691;50.828;4.700;2023-04-09T12:13:39;19.60;90.00
17152;DHT22;8691;50.828;4.700;2023-04-09T12:16:09;19.90;89.20
17152;DHT22;8691;50.828;4.700;2023-04-09T12:18:36;19.50;88.80
17152;DHT22;8691;50.828;4.700;2023-04-09T12:21:02;19.00;90.20
17152;DHT22;8691;50.828;4.700;2023-04-09T12:23:30;18.00;92.50
17152;DHT22;8691;50.828;4.700;2023-04-09T12:25:57;17.90;92.30
17152;DHT22;8691;50.828;4.700;2023-04-09T12:28:27;17.90;92.30
17152;DHT22;8691;50.828;4.700;2023-04-09T12:30:54;17.90;93.00
17152;DHT22;8691;50.828;4.700;2023-04-09T12:33:21;18.00;92.80
17152;DHT22;8691;50.828;4.700;2023-04-09T12:35:48;17.80;92.60
17152;DHT22;8691;50.828;4.700;2023-04-09T12:38:15;18.10;91.80
17152;DHT22;8691;50.828;4.700;2023-04-09T12:40:42;18.30;91.50
17152;DHT22;8691;50.828;4.700;2023-04-09T12:43:09;18.00;92.30
17152;DHT22;8691;50.828;4.700;2023-04-09T12:45:35;18.20;92.40
17152;DHT22;8691;50.828;4.700;2023-04-09T12:48:02;18.60;90.60
17152;DHT22;8691;50.828;4.700;2023-04-09T12:50:29;18.80;90.70
17152;DHT22;8691;50.828;4.700;2023-04-09T12:52:56;18.80;90.50
17152;DHT22;8691;50.828;4.700;2023-04-09T12:55:23;19.00;89.70
17152;DHT22;8691;50.828;4.700;2023-04-09T12:57:50;18.80;89.20
17152;DHT22;8691;50.828;4.700;2023-04-09T13:00:17;18.70;89.90
17152;DHT22;8691;50.828;4.700;2023-04-09T13:02:44;18.40;90.10
17152;DHT22;8691;50.828;4.700;2023-04-09T13:05:11;18.20;90.50
17152;DHT22;8691;50.828;4.700;2023-04-09T13:07:37;18.20;90.20
17152;DHT22;8691;50.828;4.700;2023-04-09T13:10:04;18.20;90.50
17152;DHT22;8691;50.828;4.700;2023-04-09T13:12:31;18.00;90.90
17152;DHT22;8691;50.828;4.700;2023-04-09T13:14:58;17.80;90.70
17152;DHT22;8691;50.828;4.700;2023-04-09T13:17:25;18.00;90.70
17152;DHT22;8691;50.828;4.700;2023-04-09T13:19:52;18.30;90.10
17152;DHT22;8691;50.828;4.700;2023-04-09T13:22:19;18.70;89.40
17152;DHT22;8691;50.828;4.700;2023-04-09T13:24:45;19.00;90.20
17152;DHT22;8691;50.828;4.700;2023-04-09T13:27:12;19.00;88.30
17152;DHT22;8691;50.828;4.700;2023-04-09T13:29:39;18.90;88.20
17152;DHT22;8691;50.828;4.700;2023-04-09T13:32:06;18.90;86.90
17152;DHT22;8691;50.828;4.700;2023-04-09T13:34:33;18.90;86.30
17152;DHT22;8691;50.828;4.700;2023-04-09T13:37:03;18.90;86.00
17152;DHT22;8691;50.828;4.700;2023-04-09T13:39:30;18.90;86.70
17152;DHT22;8691;50.828;4.700;2023-04-09T13:41:56;18.70;87.10
17152;DHT22;8691;50.828;4.700;2023-04-09T13:44:24;18.30;87.10
17152;DHT22;8691;50.828;4.700;2023-04-09T13:46:51;18.30;87.10
17152;DHT22;8691;50.828;4.700;2023-04-09T13:49:17;18.10;89.30
17152;DHT22;8691;50.828;4.700;2023-04-09T13:51:44;17.70;90.60
17152;DHT22;8691;50.828;4.700;2023-04-09T13:54:11;17.70;90.90
17152;DHT22;8691;50.828;4.700;2023-04-09T13:56:38;17.80;90.60
17152;DHT22;8691;50.828;4.700;2023-04-09T13:59:05;17.80;89.40
17152;DHT22;8691;50.828;4.700;2023-04-09T14:01:32;17.80;88.30
17152;DHT22;8691;50.828;4.700;2023-04-09T14:03:58;17.90;88.40
17152;DHT22;8691;50.828;4.700;2023-04-09T14:06:25;17.70;89.40
17152;DHT22;8691;50.828;4.700;2023-04-09T14:08:52;17.70;88.30
17152;DHT22;8691;50.828;4.700;2023-04-09T14:11:18;17.60;88.80
17152;DHT22;8691;50.828;4.700;2023-04-09T14:13:45;17.60;89.40
17152;DHT22;8691;50.828;4.700;2023-04-09T14:16:12;17.90;89.80
17152;DHT22;8691;50.828;4.700;2023-04-09T14:18:39;18.10;87.60
17152;DHT22;8691;50.828;4.700;2023-04-09T14:21:06;18.10;86.80
17152;DHT22;8691;50.828;4.700;2023-04-09T14:23:32;18.10;87.50
17152;DHT22;8691;50.828;4.700;2023-04-09T14:26:00;18.00;87.30
17152;DHT22;8691;50.828;4.700;2023-04-09T14:28:26;18.00;85.90
17152;DHT22;8691;50.828;4.700;2023-04-09T14:30:53;17.90;86.10
17152;DHT22;8691;50.828;4.700;2023-04-09T14:33:20;17.90;87.70
17152;DHT22;8691;50.828;4.700;2023-04-09T14:35:47;18.00;89.40
17152;DHT22;8691;50.828;4.700;2023-04-09T14:38:14;17.90;87.70
17152;DHT22;8691;50.828;4.700;2023-04-09T14:40:40;17.80;86.90
17152;DHT22;8691;50.828;4.700;2023-04-09T14:43:07;18.10;86.20
17152;DHT22;8691;50.828;4.700;2023-04-09T14:45:34;18.40;87.60
17152;DHT22;8691;50.828;4.700;2023-04-09T14:48:01;18.30;86.50
17152;DHT22;8691;50.828;4.700;2023-04-09T14:50:31;18.10;85.40
17152;DHT22;8691;50.828;4.700;2023-04-09T14:52:55;18.30;86.30
17152;DHT22;8691;50.828;4.700;2023-04-09T14:55:22;18.10;85.60
17152;DHT22;8691;50.828;4.700;2023-04-09T14:57:50;17.90;87.00
17152;DHT22;8691;50.828;4.700;2023-04-09T15:00:16;17.90;87.00
17152;DHT22;8691;50.828;4.700;2023-04-09T15:02:43;18.00;85.70
17152;DHT22;8691;50.828;4.700;2023-04-09T15:05:10;17.90;85.50
17152;DHT22;8691;50.828;4.700;2023-04-09T15:07:37;17.60;88.40
17152;DHT22;8691;50.828;4.700;2023-04-09T15:10:04;17.70;89.10
17152;DHT22;8691;50.828;4.700;2023-04-09T15:12:31;17.60;89.00
17152;DHT22;8691;50.828;4.700;2023-04-09T15:14:58;17.20;90.20
17152;DHT22;8691;50.828;4.700;2023-04-09T15:17:24;17.10;90.40
17152;DHT22;8691;50.828;4.700;2023-04-09T15:19:52;16.90;89.50
17152;DHT22;8691;50.828;4.700;2023-04-09T15:22:20;16.90;90.10
17152;DHT22;8691;50.828;4.700;2023-04-09T15:24:45;17.10;90.00
17152;DHT22;8691;50.828;4.700;2023-04-09T15:27:13;16.80;90.40
17152;DHT22;8691;50.828;4.700;2023-04-09T15:29:39;16.80;90.10
17152;DHT22;8691;50.828;4.700;2023-04-09T15:32:06;16.90;90.80
17152;DHT22;8691;50.828;4.700;2023-04-09T15:34:33;17.10;91.10
17152;DHT22;8691;50.828;4.700;2023-04-09T15:37:00;17.00;89.60
17152;DHT22;8691;50.828;4.700;2023-04-09T15:39:27;17.00;90.30
17152;DHT22;8691;50.828;4.700;2023-04-09T15:41:54;17.10;90.20
17152;DHT22;8691;50.828;4.700;2023-04-09T15:44:24;17.20;89.80
17152;DHT22;8691;50.828;4.700;2023-04-09T15:46:51;17.20;89.80
17152;DHT22;8691;50.828;4.700;2023-04-09T15:49:19;17.00;90.10
17152;DHT22;8691;50.828;4.700;2023-04-09T15:51:46;17.00;90.00
17152;DHT22;8691;50.828;4.700;2023-04-09T15:54:12;16.80;89.50
17152;DHT22;8691;50.828;4.700;2023-04-09T15:56:40;17.00;90.90
17152;DHT22;8691;50.828;4.700;2023-04-09T15:59:07;17.00;90.90
17152;DHT22;8691;50.828;4.700;2023-04-09T16:01:34;17.00;89.90
17152;DHT22;8691;50.828;4.700;2023-04-09T16:04:02;17.00;90.20
17152;DHT22;8691;50.828;4.700;2023-04-09T16:06:29;17.10;90.40